aviador You're here:

KSAC Decoded Metar

SACRAMENTO in CA, USA
Report Time2018-07-16 07:53:00
UTC Time2018-07-16 08:30:50
Flight Rules vfr VFR
Wind150° at 05 kt
W.Decomp.*RWY 12: 4.8 kt HW 1.4 kt RCW
RWY 16: 4.6 kt HW 2 kt LCW
RWY 20: 2.2 kt HW 4.5 kt LCW
W.Rank150° ranks 10
Current wind is below 150° avg. (5.1)
Visibility9999 m
Phenomena:N/A
Clouds:N/A
Expected CloudBase > 2,000 ft AGL from Temp-Dew spread
CeilingNone
Temp18°C (ISA +3)
Dew Point13°C (73% RH)
AAT17.2°C
QNH1012 hPa
Density Alt630 ft
Elevation36 ft
Report Wrong Elevation
Raw Report
KSAC 160753Z AUTO 15005KT 10SM CLR 18/13 A2989 RMK AO2 SLP123
T01830128 403330156=

Extra information for KSAC:More info

Metar Taf Metar & Taf Last 4 Metars F.Rules Stats Wind Profile Meteogram Temp Stats Airport Information Weather charts Add Link Nearby VenuesMetar ALERT Operation Metar Decoded Social comments

AIRNAV info for KSAC